Aviation Digital Data Service (ADDS)

Output produced by METARs form (1050 UTC 16 July 2018)
found at http://www.aviationweather.gov/adds/metars/
 
KBOS 161042Z 03004KT 1 1/2SM R04R/1200V5500FT BR FEW003 21/19 A2999 RMK AO2 SFC VIS 2 T02060194
KBOS 161031Z 1611/1712 02003KT 1 1/2SM BR SCT003 
     FM161200 05003KT P6SM FEW004 
     FM161500 12008KT P6SM SCT050 BKN250 
     FM161900 12010KT P6SM BKN050 
     FM162200 15010KT P6SM SCT050
       
KLGA 160951Z 21003KT 10SM FEW250 26/21 A2996 RMK AO2 SLP147 T02610206 $
KLGA 160805Z 1608/1712 25005KT P6SM FEW250 
     FM161400 20006KT P6SM FEW060 SCT150 
     FM161600 19009KT P6SM FEW060 SCT150 
     FM162000 18012KT P6SM SCT060 SCT150 
     FM170100 20008KT P6SM SCT060 BKN150
       
KJFK 160951Z 23006KT 7SM FEW250 23/23 A2998 RMK AO2 SLP152 T02280228 $
KJFK 160805Z 1608/1712 25005KT P6SM FEW250 
     FM161400 20007KT P6SM FEW060 SCT150 
     FM161600 18009KT P6SM FEW060 SCT150 
     FM161900 18014KT P6SM SCT060 SCT150 
     FM170200 20009KT P6SM SCT060 BKN150
       
KEWR 160951Z 21004KT 10SM FEW150 FEW250 23/21 A2997 RMK AO2 SLP148 T02280211 $
KEWR 160805Z 1608/1712 25005KT P6SM FEW250 
     FM161400 21007KT P6SM SCT060 SCT150 
     FM161800 18009KT P6SM SCT060 SCT150 
     FM170200 21007KT P6SM SCT060 BKN150
       
KPHL 161021Z 23007KT 5SM BR CLR 23/22 A2999 RMK AO2 T02330222 $
KPHL 160857Z 1609/1712 22005KT P6SM SCT250 
     TEMPO 1609/1611 5SM BR 
     FM161100 23005KT P6SM SCT150 
     FM161700 22008KT P6SM SCT050
       
KBWI 160954Z 00000KT 8SM FEW140 SCT250 21/21 A2999 RMK AO2 SLP155 T02110206
KBWI 160903Z 1609/1712 VRB03KT P6SM FEW120 SCT250 
     FM161700 19008KT P6SM BKN060 
     FM170500 20005KT P6SM SCT070 SCT150 
     FM171100 21006KT P6SM BKN130
       
KDCA 160952Z 00000KT 10SM FEW060 SCT160 BKN250 24/21 A3000 RMK AO2 SLP159 T02440206 $
KDCA 160903Z 1609/1712 VRB03KT P6SM FEW100 SCT250 
     FM161200 18005KT P6SM SCT090 BKN200 
     FM161800 19010KT P6SM BKN060 
     FM170200 20005KT P6SM SCT070 SCT150
       
KIAD 160952Z 00000KT 10SM FEW030 SCT160 19/19 A3001 RMK AO2 SLP159 T01940194
KIAD 160903Z 1609/1712 VRB03KT P6SM FEW100 SCT250 
     FM161400 20006KT P6SM SCT080 BKN200 
     FM161800 19008KT P6SM BKN050 
     FM170200 18006KT P6SM SCT060 BKN200 
     FM171000 20006KT P6SM BKN120
       
KCLT 160952Z 23004KT 10SM FEW080 BKN210 24/22 A3005 RMK AO2 SLP165 T02440217
KCLT 161005Z 1610/1712 22005KT P6SM SCT080 BKN120 
     FM161500 21006KT P6SM BKN035 
     PROB30 1619/1621 4SM -TSRA OVC025CB 
     FM162100 21009KT P6SM BKN040 
     TEMPO 1621/1701 4SM -TSRA OVC025CB 
     FM170100 19006KT P6SM VCSH SCT050 BKN150 
     FM170900 21004KT P6SM BKN024
       
KATL 160952Z 00000KT 10SM SCT009 BKN100 25/23 A3005 RMK AO2 SLP163 T02500228 $
KATL 160959Z 1610/1712 19004KT 6SM BR BKN008 
     FM161500 22005KT P6SM BKN025 
     FM161700 23006KT P6SM VCSH BKN040 
     TEMPO 1619/1623 VRB10G20KT 3SM TSRA BKN025CB 
     FM170000 23005KT P6SM SCT060 BKN150 
     FM170900 25004KT P6SM SCT012 BKN025
       
KTPA 160953Z 00000KT 10SM FEW020 BKN120 27/24 A3004 RMK AO2 SLP171 T02720244
KTPA 160904Z 1609/1712 VRB03KT P6SM FEW025 SCT250 
     FM161500 22006KT P6SM VCTS SCT030CB SCT100 BKN250 
     FM161800 24007KT P6SM VCTS SCT040CB SCT100 BKN250 
     FM162100 26008KT P6SM FEW040 SCT130 BKN250 
     FM170200 23004KT P6SM FEW025 SCT250 
     FM171000 23004KT P6SM VCSH SCT025 SCT250
       
KMCO 160953Z 13005KT 10SM FEW130 SCT250 24/24 A3004 RMK AO2 SLP172 T02440244
KMCO 160903Z 1609/1712 00000KT P6SM SCT250 
     FM161500 22005KT P6SM SCT035 SCT250 
     FM162000 21007KT P6SM VCTS SCT050CB BKN250 
     FM170100 20005KT P6SM SCT050 BKN120
       
KMIA 160953Z VRB03KT 10SM FEW030 FEW075 SCT250 27/23 A3005 RMK AO2 SLP176 T02670228 $
KMIA 160958Z 1610/1712 VRB03KT P6SM FEW025 SCT250 
     FM161700 15010KT P6SM VCTS SCT030CB BKN050 
     FM170000 VRB04KT P6SM SCT030 SCT100
       
KFLL 160953Z 00000KT 10SM SCT028 SCT250 28/24 A3004 RMK AO2 SLP173 OCNL LTGIC DSNT W T02780244
KFLL 160958Z 1610/1712 VRB03KT P6SM FEW025 SCT250 
     FM161700 15010KT P6SM VCTS SCT025CB BKN050 
     FM170000 VRB05KT P6SM SCT030 BKN100
       
KDTW 160953Z 20007KT 7SM SCT120 BKN230 23/20 A2993 RMK AO2 SLP129 T02330200
KDTW 160910Z 1609/1712 21005KT P6SM BKN100 
     FM161900 22007KT P6SM VCTS SCT040CB BKN060 
     TEMPO 1620/1624 3SM TSRA BKN040CB 
     FM170100 28006KT P6SM SCT050 BKN250 
     FM170600 34006KT P6SM SCT250
       
KORD 160951Z 28003KT 10SM FEW250 24/22 A2992 RMK AO2 SLP125 T02440217
KORD 160957Z 1610/1712 28003KT P6SM VCSH SCT030 SCT250 
     FM161500 30006KT P6SM SCT030 BKN200 
     FM161700 32007KT P6SM VCTS SCT040CB BKN080 
     FM162100 34011G18KT P6SM FEW040 SCT150 
     FM170500 32005KT P6SM SKC
       
KMDW 160953Z 28005KT 10SM FEW250 25/23 A2992 RMK AO2 SLP119 T02500228
KMDW 160913Z 1609/1712 28003KT P6SM FEW035 SCT250 
     FM161500 30006KT P6SM SCT030 BKN200 
     FM161800 32007KT P6SM VCTS SCT040CB BKN080 
     FM162200 34011G18KT P6SM FEW040 SCT150 
     FM170500 32005KT P6SM SKC
       
KMSP 160953Z 29004KT 10SM CLR 18/15 A3003 RMK AO2 SLP165 T01780150 $
KMSP 161001Z 1610/1712 30005KT P6SM SKC 
     FM161700 29012G18KT P6SM SKC 
     FM170100 33007KT P6SM SKC
       
KMEM 160954Z 19008KT 10SM BKN140 OVC250 23/22 A2995 RMK AO2 SLP138 T02280217 $
KMEM 160902Z 1609/1712 19005KT P6SM FEW080 SCT150 BKN250 
     FM161500 25005KT P6SM FEW035 
     FM161800 26006KT P6SM VCTS SCT050CB 
     FM170000 22004KT P6SM FEW060 BKN150
       
KDFW 160953Z 20010KT 9SM FEW250 28/20 A2997 RMK AO2 SLP138 T02830200
KDFW 160857Z 1609/1712 16010KT P6SM SCT060
       
KIAH 160953Z 20003KT 7SM FEW020 FEW038 26/25 A3002 RMK AO2 SLP165 T02560250
KIAH 160900Z 1609/1712 00000KT P6SM SCT020 
     FM161600 22007KT P6SM SCT040 
     FM162300 16007KT P6SM FEW050
       
KDEN 160953Z 07006KT 1/8SM R35L/0800V1000FT FG VV001 16/15 A3025 RMK AO2 SLP182 T01560150 $
KDEN 161011Z 1610/1712 05005KT 1/4SM FG VV001 
     FM161300 VRB05KT 1SM BR BKN003 
     TEMPO 1613/1614 1/4SM FG VV001 
     FM161500 16005KT P6SM FEW020 SCT035 
     FM161700 12006KT P6SM FEW035 SCT250 
     FM170300 15008KT P6SM SCT150
       
KSLC 160954Z 19006KT 10SM SCT150 23/09 A3004 RMK AO2 SLP107 T02280094 $
KSLC 160905Z 1609/1712 15007KT P6SM SCT090 BKN150 
     FM161900 31008KT P6SM SCT110 
     FM170400 15007KT P6SM FEW110
       
KSEA 160953Z 04004KT 10SM CLR 21/08 A3000 RMK AO2 SLP160 T02110083 $
KSEA 160901Z 1609/1712 02006KT P6SM SKC 
     FM161800 32009KT P6SM SKC
       
KSFO 160956Z 28010KT 10SM FEW009 14/12 A2997 RMK AO2 SLP149 T01390117
KSFO 160904Z 1609/1712 29008KT P6SM FEW009 
     FM161100 28007KT P6SM OVC008 
     FM161700 34006KT P6SM SCT015 
     FM161900 31013KT P6SM FEW010 
     FM162100 29016KT P6SM FEW010 
     FM170400 29010KT P6SM SCT010 
     FM170700 29008KT P6SM OVC008
       
KLAX 160953Z 00000KT 10SM FEW011 OVC014 21/18 A2994 RMK AO2 SLP137 T02110178
KLAX 160858Z 1609/1712 VRB03KT P6SM OVC015 
     FM161500 26006KT P6SM BKN015 
     FM161800 26012KT P6SM SKC 
     FM170400 26006KT P6SM SCT009 
     FM170700 VRB03KT P6SM BKN009
       
KSAN 160951Z 18005KT 10SM OVC011 21/17 A2997 RMK AO2 SLP147 T02060167
KSAN 160902Z 1609/1712 VRB04KT P6SM OVC012 
     FM161600 VRB04KT P6SM SCT012 SCT200 
     FM161900 26009KT P6SM SCT200 
     FM170300 25006KT P6SM BKN015
       
KLAS 160956Z 20003KT 10SM BKN250 33/16 A2988 RMK AO2 SLP084 T03280161
KLAS 160845Z 1609/1712 19006KT P6SM FEW200 BKN250 
     FM161900 11006KT P6SM FEW120 SCT250 
     FM170300 18007KT P6SM FEW150 SCT250
       
KPHX 160951Z 08009KT 10SM BKN120 BKN250 32/18 A2987 RMK AO2 SLP093 T03170183
KPHX 160903Z 1609/1712 10007KT P6SM VCSH SCT100 BKN120 BKN200 
     FM161800 27007KT P6SM SCT080 SCT250 
     FM170200 04014G27KT P6SM VCTS BKN080CB BKN120 
     FM170700 10008KT P6SM BKN100 OVC200
       
KSDF 160956Z 17004KT 10SM BKN060 BKN090 BKN250 24/21 A2998 RMK AO2 SLP145 T02390206
KSDF 161037Z 1611/1712 VRB04KT P6SM -SHRA OVC080 
     FM161200 VRB04KT P6SM -SHRA SCT015 OVC022 
     TEMPO 1612/1614 4SM RA BKN015 
     FM161400 VRB04KT P6SM SCT017 BKN021 
     FM161800 25006KT P6SM VCSH SCT040 BKN060 
     FM162200 27006KT P6SM SCT040 
     PROB30 1622/1704 4SM -TSRA BKN035CB BKN040 
     FM170700 32006KT P6SM SCT200
       
KIND 161039Z 17005KT 5SM BR BKN026 23/22 A2997 RMK AO2 T02280217
KIND 160818Z 1608/1712 21004KT P6SM SCT020 
     FM161100 VRB04KT P6SM BKN015 
     FM161800 26005KT P6SM VCTS BKN060CB 
     FM170200 32005KT P6SM BKN200